Time;durP1;ratioP1;P1;durP2;ratioP2;P2;SDS_P1;SDS_P2;PMS_P1;PMS_P2;Temp;Humidity;BMP_temperature;BMP_pressure;BME280_temperature;BME280_humidity;BME280_pressure;Samples;Min_cycle;Max_cycle;Signal;HPM_P1;HPM_P2
2022/12/10 01:04:19;;;;;;;114.80;26.73;;;;;;;-0.49;71.00;99518.88;4904613;29;20052;-94
2022/12/10 01:07:43;;;;;;;127.93;27.90;;;;;;;-1.34;72.13;99378.00;4870804;29;20068;-95
2022/12/10 01:11:41;;;;;;;;;;;;;;;;;;;;;
2022/12/10 01:15:41;;;;;;;120.97;27.02;;;;;;;-1.39;73.05;99391.31;4773710;30;20101;-94
2022/12/10 01:19:07;;;;;;;;;;;;;;;;;;;;;
2022/12/10 01:22:51;;;;;;;96.43;23.83;;;;;;;-0.76;73.33;99492.53;4821893;23;20225;-94
2022/12/10 02:02:18;;;;;;;70.18;23.83;;;;;;;-0.46;69.82;99507.69;1080031;23;20360;31
2022/12/10 02:05:54;;;;;;;;;;;;;;;;;;;;;
2022/12/10 02:12:42;;;;;;;67.43;21.80;;;;;;;-0.74;68.62;99482.34;4827896;29;20080;-94
2022/12/10 02:22:53;;;;;;;72.00;20.55;;;;;;;-0.89;71.22;99502.66;4837462;29;20054;-95
2022/12/10 02:26:17;;;;;;;62.22;22.20;;;;;;;-0.72;71.51;99490.19;4796630;29;20058;-95
2022/12/10 02:30:13;;;;;;;69.28;22.13;;;;;;;-0.81;69.98;99462.06;4839471;29;20049;-95
2022/12/10 02:44:49;;;;;;;61.13;20.55;;;;;;;-1.26;71.52;99361.56;4760701;30;20113;-95
2022/12/10 02:48:16;;;;;;;57.75;20.35;;;;;;;-1.33;71.74;99379.63;4778286;30;20506;-94
2022/12/10 02:51:36;;;;;;;65.07;20.02;;;;;;;-0.46;72.63;99494.25;4755544;30;20082;-93
2022/12/10 02:54:56;;;;;;;55.17;19.58;;;;;;;-0.95;71.69;99394.41;4734678;29;20055;-93
2022/12/10 02:58:37;;;;;;;61.67;20.27;;;;;;;-0.61;71.14;99445.59;4795736;30;20055;-94
2022/12/10 03:02:10;;;;;;;61.13;20.88;;;;;;;-0.22;70.90;99470.81;4764412;30;20059;-95
2022/12/10 03:06:02;;;;;;;59.88;20.10;;;;;;;-0.39;69.70;99465.38;4773566;30;20066;-95
2022/12/10 03:09:09;;;;;;;57.70;20.02;;;;;;;-1.14;70.56;99377.63;4759795;30;20055;-95
2022/12/10 03:11:43;;;;;;;66.13;20.80;;;;;;;-0.71;70.74;99420.16;4687531;30;20057;-95
2022/12/10 03:14:50;;;;;;;65.65;21.17;;;;;;;-0.89;70.58;99412.25;4704357;30;20192;-95
2022/12/10 03:17:50;;;;;;;66.43;21.02;;;;;;;-0.99;70.92;99375.28;4709955;30;20045;-93
2022/12/10 03:20:39;;;;;;;68.45;21.83;;;;;;;-0.31;71.40;99481.13;4709255;30;20061;-94
2022/12/10 03:23:43;;;;;;;70.15;21.55;;;;;;;-0.58;71.28;99427.13;4772863;30;20153;-94
2022/12/10 03:33:57;;;;;;;;;;;;;;;;;;;;;
2022/12/10 03:37:29;;;;;;;69.07;21.25;;;;;;;-0.18;69.78;99489.97;4877859;29;20056;-93
2022/12/10 03:40:21;;;;;;;69.85;23.05;;;;;;;-1.01;69.70;99353.25;4854845;29;20116;-94
2022/12/10 03:43:15;;;;;;;85.97;24.88;;;;;;;-0.20;70.45;99487.50;4808266;29;20055;-94
2022/12/10 03:45:58;;;;;;;78.53;24.75;;;;;;;-0.52;71.52;99439.63;4763273;30;20082;-94
2022/12/10 03:49:18;;;;;;;76.72;24.45;;;;;;;-0.14;71.67;99493.81;4793184;30;20082;-95
2022/12/10 03:51:44;;;;;;;85.13;24.88;;;;;;;-0.02;71.44;99491.91;4795604;29;20055;-95
2022/12/10 03:55:06;;;;;;;;;;;;;;;;;;;;;
2022/12/10 03:58:16;;;;;;;84.90;26.33;;;;;;;-0.24;71.62;99446.88;4970047;23;20086;-93
2022/12/10 04:00:59;;;;;;;93.70;26.92;;;;;;;0.07;71.33;99485.09;4875138;29;20096;-95
2022/12/10 04:11:22;;;;;;;;;;;;;;;;;;;;;
2022/12/10 04:17:53;;;;;;;86.93;25.85;;;;;;;-0.61;72.92;99413.38;4893817;29;20057;-94
2022/12/10 04:29:09;;;;;;;86.43;26.30;;;;;;;-0.36;72.29;99478.34;4858178;29;20053;-95
2022/12/10 04:32:00;;;;;;;97.97;28.35;;;;;;;-0.88;71.59;99392.41;4854437;29;20041;-93
2022/12/10 04:34:28;;;;;;;89.13;27.00;;;;;;;-1.15;72.43;99345.69;4861300;29;20048;-93
2022/12/10 04:37:02;;;;;;;92.50;29.30;;;;;;;-0.77;72.26;99399.63;4874116;29;20072;-95
2022/12/10 04:39:56;;;;;;;107.60;30.05;;;;;;;-1.11;72.36;99330.75;4866941;29;20044;-95
2022/12/10 04:45:29;;;;;;;90.32;27.20;;;;;;;-0.76;72.11;99398.59;4878499;29;20040;-94
2022/12/10 04:48:23;;;;;;;84.05;27.77;;;;;;;-1.28;70.74;99334.16;4879681;29;20091;-95
2022/12/10 04:54:38;;;;;;;80.50;25.30;;;;;;;-1.20;70.07;99360.59;4821062;29;20054;-95
2022/12/10 04:58:05;;;;;;;;;;;;;;;;;;;;;
2022/12/10 05:04:44;;;;;;;99.50;31.85;;;;;;;-0.19;70.31;99456.91;4854916;23;20056;-95
2022/12/10 05:07:12;;;;;;;92.47;28.58;;;;;;;-0.94;70.50;99337.00;4874032;29;20036;-94
2022/12/10 05:09:38;;;;;;;92.05;29.40;;;;;;;-0.91;71.60;99330.38;4861776;29;20116;-93
2022/12/10 05:12:27;;;;;;;100.40;28.92;;;;;;;-0.92;72.08;99331.41;4887403;29;20060;-94
2022/12/10 05:15:02;;;;;;;95.95;28.42;;;;;;;-0.59;72.01;99400.53;4871358;29;20070;-96
2022/12/10 05:17:42;;;;;;;;;;;;;;;;;;;;;
2022/12/10 05:21:02;;;;;;;91.30;26.38;;;;;;;-1.13;69.68;99335.53;4885903;29;20045;-93
2022/12/10 05:27:33;;;;;;;86.22;26.38;;;;;;;-0.61;69.34;99413.38;4842830;29;20112;-94
2022/12/10 05:30:00;;;;;;;84.55;25.70;;;;;;;-1.10;69.57;99341.22;4839052;29;20055;-94
2022/12/10 05:32:55;;;;;;;;;;;;;;;;;;;;;
2022/12/10 05:36:25;;;;;;;85.72;26.23;;;;;;;-1.01;70.40;99366.66;4862804;29;20057;-94
2022/12/10 05:42:28;;;;;;;78.07;24.38;;;;;;;-0.89;69.15;99357.75;4828901;29;20636;-93
2022/12/10 05:44:57;;;;;;;81.25;24.58;;;;;;;-0.57;68.96;99418.00;4810306;29;20041;-93
2022/12/10 05:48:08;;;;;;;;;;;;;;;;;;;;;
2022/12/10 05:51:46;;;;;;;96.90;26.23;;;;;;;0.05;69.62;99495.25;4770426;30;20064;-96
2022/12/10 05:55:11;;;;;;;81.72;25.13;;;;;;;0.13;70.15;99488.69;4746909;30;20052;-96
2022/12/10 06:04:27;;;;;;;87.25;23.88;;;;;;;-0.72;70.32;99332.63;5055705;23;20056;-93
2022/12/10 06:14:18;;;;;;;;;;;;;;;0.15;72.15;99465.88;4967074;23;20056;-90
2022/12/10 06:16:47;;;;;;;97.15;29.73;;;;;;;-0.07;71.37;99436.19;4891237;29;19931;-92
2022/12/10 07:22:37;;;;;;;113.60;28.02;;;;;;;0.38;68.92;99410.38;1378071;23;20478;-90
2022/12/10 07:25:04;;;;;;;112.80;28.50;;;;;;;-0.10;68.99;99333.75;4783272;29;20063;-93
2022/12/10 07:27:36;;;;;;;101.72;29.08;;;;;;;0.24;68.60;99377.59;4771310;29;20046;-95
2022/12/10 07:30:41;;;;;;;107.70;28.30;;;;;;;0.49;69.60;99404.06;4787100;30;20066;-95
2022/12/10 07:33:31;;;;;;;113.65;28.15;;;;;;;0.32;70.42;99357.56;4808859;29;20063;-94
2022/12/10 07:36:15;;;;;;;122.95;36.65;;;;;;;0.44;70.29;99372.56;4843476;29;20022;-91
2022/12/10 07:38:41;;;;;;;103.53;27.88;;;;;;;0.63;70.17;99402.72;4848850;29;20049;-92
2022/12/10 07:41:21;;;;;;;176.38;57.15;;;;;;;0.83;69.04;99433.66;4858168;29;20052;-89
2022/12/10 07:43:47;;;;;;;121.18;33.78;;;;;;;0.86;69.19;99430.47;4852840;29;20057;-90
2022/12/10 07:46:17;;;;;;;126.72;33.58;;;;;;;0.17;69.03;99321.31;4859934;29;20038;-90
2022/12/10 07:48:45;;;;;;;135.80;31.10;;;;;;;0.56;69.43;99363.56;4869135;29;20043;-94
2022/12/10 07:51:12;;;;;;;103.53;26.45;;;;;;;0.64;69.11;99344.34;4860590;29;20069;-92
2022/12/10 07:53:41;;;;;;;139.88;29.27;;;;;;;0.78;68.87;99359.06;4869181;29;20041;-92
2022/12/10 07:56:07;;;;;;;104.97;28.55;;;;;;;0.77;68.02;99346.69;4861730;29;20065;-92
2022/12/10 07:58:34;;;;;;;129.97;31.43;;;;;;;0.58;67.61;99330.00;4827164;29;20050;-92
2022/12/10 08:01:09;;;;;;;145.45;32.05;;;;;;;0.47;68.33;99314.78;4795857;29;20157;-93
2022/12/10 08:03:36;;;;;;;165.25;31.23;;;;;;;0.43;67.68;99314.47;4781474;29;20297;-93
2022/12/10 08:06:14;;;;;;;159.07;32.20;;;;;;;1.01;67.88;99390.31;4843215;29;20038;-96
2022/12/10 08:08:43;;;;;;;147.35;30.17;;;;;;;0.91;67.36;99355.19;4829547;29;20052;-95
2022/12/10 08:11:10;;;;;;;118.15;28.48;;;;;;;1.06;67.55;99379.66;4812425;29;20038;-92
2022/12/10 08:13:37;;;;;;;128.68;29.05;;;;;;;0.84;67.24;99333.03;4811316;29;20034;-92
2022/12/10 08:16:18;;;;;;;154.82;31.33;;;;;;;1.22;66.77;99395.97;4781693;29;20046;-93
2022/12/10 08:18:59;;;;;;;161.45;30.67;;;;;;;0.97;67.12;99338.06;4778803;29;20059;-92
2022/12/10 08:22:05;;;;;;;181.00;38.30;;;;;;;1.55;66.14;99421.97;4774073;29;20058;-94
2022/12/10 08:24:43;;;;;;;146.40;34.88;;;;;;;1.14;66.55;99363.03;4737892;29;20065;-93
2022/12/10 08:27:12;;;;;;;;;;;;;;;1.60;66.29;99425.56;4769004;29;20058;-92
2022/12/10 08:29:54;;;;;;;197.38;35.67;;;;;;;1.05;66.45;99344.88;4808899;29;19972;-91
2022/12/10 08:32:22;;;;;;;275.80;42.95;;;;;;;1.27;65.94;99396.06;4802472;29;20179;-92
2022/12/10 08:34:54;;;;;;;221.80;55.85;;;;;;;1.15;65.88;99386.19;4816207;29;20053;-92
2022/12/10 08:37:26;;;;;;;147.15;35.80;;;;;;;1.29;66.67;99385.84;4883371;29;20079;-91
2022/12/10 08:39:53;;;;;;;194.32;41.85;;;;;;;1.08;65.91;99357.84;4872289;29;20661;-93
2022/12/10 08:42:22;;;;;;;209.93;44.55;;;;;;;1.16;66.64;99369.00;4876800;29;20053;-93
2022/12/10 08:45:01;;;;;;;163.13;41.40;;;;;;;1.33;65.97;99377.03;4893077;29;20655;-92
2022/12/10 08:47:47;;;;;;;211.57;34.05;;;;;;;0.84;66.34;99315.00;4881124;29;20028;-93
2022/12/10 08:51:34;;;;;;;269.42;40.78;;;;;;;0.99;64.77;99329.72;4990668;23;20053;-92
2022/12/10 09:12:19;;;;;;;109.43;27.85;;;;;;;1.37;66.10;99361.16;4924227;29;20058;-93
2022/12/10 09:15:35;;;;;;;118.85;28.92;;;;;;;1.35;65.42;99347.13;4881888;29;20052;-93
2022/12/10 09:18:39;;;;;;;116.80;29.33;;;;;;;1.47;66.11;99374.75;4868863;29;20032;-93
2022/12/10 09:21:08;;;;;;;121.40;27.77;;;;;;;1.42;64.40;99385.47;4877403;29;20152;-95
2022/12/10 09:23:34;;;;;;;129.00;28.85;;;;;;;1.29;64.40;99348.13;4873994;29;20052;-92
2022/12/10 09:26:05;;;;;;;158.82;34.53;;;;;;;1.35;63.25;99365.97;4859422;29;20088;-91
2022/12/10 09:28:33;;;;;;;152.63;34.08;;;;;;;1.45;64.52;99395.72;4876555;29;20048;-93
2022/12/10 09:31:04;;;;;;;146.13;38.20;;;;;;;0.98;64.73;99307.38;4890991;29;20048;-95
2022/12/10 09:33:36;;;;;;;155.23;36.95;;;;;;;1.51;65.23;99353.50;4854519;29;20059;-94
2022/12/10 09:36:08;;;;;;;175.43;38.15;;;;;;;1.85;66.17;99410.72;4830346;29;20045;-92
2022/12/10 09:38:37;;;;;;;163.27;35.30;;;;;;;1.82;66.38;99409.38;4862453;29;20045;-93
2022/12/10 09:41:26;;;;;;;148.65;36.13;;;;;;;1.85;64.51;99408.88;4827144;29;20053;-95
2022/12/10 09:44:14;;;;;;;162.77;37.28;;;;;;;1.97;65.76;99416.00;4867394;29;20068;-93
2022/12/10 09:47:03;;;;;;;168.93;37.15;;;;;;;2.01;66.07;99422.50;4837669;29;20044;-94
2022/12/10 09:50:08;;;;;;;157.25;37.35;;;;;;;2.01;65.65;99411.72;4856149;29;20048;-92
2022/12/10 09:52:39;;;;;;;139.30;34.40;;;;;;;1.50;65.31;99317.69;4841240;29;20113;-94
2022/12/10 09:55:14;;;;;;;182.20;46.92;;;;;;;1.31;64.70;99286.75;4847610;29;20044;-95
2022/12/10 09:57:51;;;;;;;167.20;38.20;;;;;;;2.08;66.00;99394.25;4854664;29;20049;-91
2022/12/10 10:01:19;;;;;;;177.63;36.92;;;;;;;2.11;67.84;99392.94;4853097;29;20194;-95
2022/12/10 10:04:45;;;;;;;290.95;99.00;;;;;;;1.95;66.16;99394.66;4856905;29;20070;-92
2022/12/10 10:07:47;;;;;;;335.83;41.95;;;;;;;1.65;64.14;99395.16;4911783;23;20520;-95
2022/12/10 10:11:00;;;;;;;;;;;;;;;;;;;;;
2022/12/10 10:14:37;;;;;;;170.73;38.53;;;;;;;1.84;64.88;99377.56;4860794;29;20060;-92
2022/12/10 10:17:32;;;;;;;230.95;55.92;;;;;;;1.26;65.67;99274.06;4851776;29;20045;-93
2022/12/10 10:20:05;;;;;;;208.35;40.13;;;;;;;1.19;66.61;99265.34;4789848;29;20055;-93
2022/12/10 10:22:33;;;;;;;233.68;37.45;;;;;;;1.46;66.61;99305.78;4787353;30;20043;-93
2022/12/10 10:25:28;;;;;;;202.55;44.38;;;;;;;1.43;66.26;99305.50;4776963;30;20048;-92
2022/12/10 10:28:39;;;;;;;180.55;37.00;;;;;;;1.28;65.12;99268.41;4798343;29;20126;-96
2022/12/10 10:31:28;;;;;;;189.23;34.17;;;;;;;0.98;65.34;99247.38;4801030;30;20433;-94
2022/12/10 10:34:21;;;;;;;149.93;32.63;;;;;;;0.97;64.07;99241.16;4776973;30;20043;-94
2022/12/10 10:37:03;;;;;;;197.88;37.47;;;;;;;1.12;65.07;99251.28;4782619;30;20067;-89
2022/12/10 10:39:36;;;;;;;165.75;34.80;;;;;;;1.91;65.11;99357.69;4792272;29;20053;-92
2022/12/10 10:42:09;;;;;;;166.93;34.33;;;;;;;1.30;66.42;99250.94;4778194;29;20077;-93
2022/12/10 10:44:38;;;;;;;154.98;35.40;;;;;;;1.38;66.71;99258.56;4789037;29;20052;-93
2022/12/10 10:47:31;;;;;;;138.32;35.20;;;;;;;1.52;65.58;99298.56;4791966;29;20055;-93
2022/12/10 10:50:04;;;;;;;139.85;37.15;;;;;;;1.11;64.63;99237.00;4777948;29;20050;-91
2022/12/10 10:52:42;;;;;;;125.60;32.10;;;;;;;1.61;66.84;99316.72;4796121;30;20062;-93
2022/12/10 10:55:36;;;;;;;132.88;33.28;;;;;;;1.24;66.22;99235.00;4769173;29;20445;-92
2022/12/10 10:58:02;;;;;;;206.48;34.15;;;;;;;1.51;66.66;99273.50;4783530;29;20039;-94
2022/12/10 11:00:29;;;;;;;150.33;33.97;;;;;;;1.15;65.68;99238.13;4780655;29;20058;-92
2022/12/10 11:02:58;;;;;;;170.07;36.20;;;;;;;1.45;66.27;99273.72;4794080;29;20035;-91
2022/12/10 11:05:31;;;;;;;146.35;36.45;;;;;;;1.25;66.34;99231.22;4770858;30;20188;-92
2022/12/10 11:08:17;;;;;;;218.07;34.63;;;;;;;1.67;66.92;99296.03;4785483;29;20039;-93
2022/12/10 11:11:02;;;;;;;168.43;37.22;;;;;;;1.91;66.62;99336.13;4808185;29;20074;-91
2022/12/10 11:13:35;;;;;;;196.02;37.03;;;;;;;1.34;67.72;99232.41;4817936;29;20074;-93
2022/12/10 11:16:15;;;;;;;209.48;33.72;;;;;;;1.32;69.96;99232.63;4816151;29;20046;-94
2022/12/10 11:18:55;;;;;;;233.05;34.63;;;;;;;1.32;70.15;99221.88;4844859;29;20045;-93
2022/12/10 11:21:24;;;;;;;188.75;34.17;;;;;;;1.54;70.59;99261.41;4840871;29;20089;-93
2022/12/10 11:48:04;;;;;;;96.85;26.23;;;;;;;1.68;69.50;99211.41;5395101;23;20052;-93
2022/12/10 11:50:45;;;;;;;191.75;35.05;;;;;;;1.64;68.51;99219.22;4879369;29;20562;-92
2022/12/10 11:53:46;;;;;;;271.23;40.72;;;;;;;1.75;67.19;99236.25;4893914;29;20561;-92
2022/12/10 11:56:57;;;;;;;272.40;39.88;;;;;;;1.35;66.13;99204.41;4875634;29;20099;-92
2022/12/10 11:59:45;;;;;;;234.23;36.88;;;;;;;1.41;67.28;99214.16;4825995;29;20102;-92
2022/12/10 12:02:32;;;;;;;203.95;33.70;;;;;;;1.95;67.72;99284.13;4807740;29;20038;-95
2022/12/10 12:05:56;;;;;;;124.45;26.60;;;;;;;1.53;69.50;99192.44;4813901;29;20046;-94
2022/12/10 12:09:06;;;;;;;99.68;25.50;;;;;;;2.21;69.23;99274.38;4819718;29;20054;-93
2022/12/10 12:12:05;;;;;;;84.95;24.73;;;;;;;2.19;69.23;99273.03;4759140;30;20060;-93
2022/12/10 12:14:57;;;;;;;75.80;22.17;;;;;;;1.67;70.15;99200.91;4754671;30;20131;-92
2022/12/10 12:17:29;;;;;;;118.03;27.52;;;;;;;2.19;68.65;99283.81;4738549;30;20048;-93
2022/12/10 12:20:11;;;;;;;89.30;24.92;;;;;;;1.87;69.09;99201.88;4776983;30;20040;-92
2022/12/10 12:22:48;;;;;;;73.93;21.95;;;;;;;2.25;69.28;99255.78;4766262;30;20055;-90
2022/12/10 12:25:40;;;;;;;70.43;23.35;;;;;;;2.41;69.04;99262.88;4752370;30;20272;-93
2022/12/10 12:28:14;;;;;;;94.30;25.15;;;;;;;2.43;68.71;99268.84;4757265;30;20160;-91
2022/12/10 12:30:45;;;;;;;69.15;22.70;;;;;;;1.94;69.06;99196.25;4756731;30;20470;-89
2022/12/10 12:33:16;;;;;;;87.03;28.20;;;;;;;1.77;69.17;99201.00;4759172;30;20039;-91
2022/12/10 12:35:50;;;;;;;113.65;27.75;;;;;;;1.93;68.78;99220.78;4787052;29;20048;-91
2022/12/10 12:38:30;;;;;;;164.80;33.55;;;;;;;1.65;66.02;99182.28;4833080;29;20069;-90
2022/12/10 12:41:13;;;;;;;161.30;33.03;;;;;;;2.03;65.40;99255.91;4832062;29;20068;-93
2022/12/10 12:43:58;;;;;;;145.82;31.20;;;;;;;1.27;66.55;99137.56;4825970;29;20048;-91
2022/12/10 12:46:37;;;;;;;112.40;29.42;;;;;;;1.85;68.46;99213.97;4822731;29;20049;-92
2022/12/10 12:49:24;;;;;;;155.40;38.10;;;;;;;1.98;65.28;99251.28;4861266;29;20419;-92
2022/12/10 12:52:10;;;;;;;127.32;29.27;;;;;;;1.51;67.24;99184.63;4871888;29;20080;-92
2022/12/10 12:54:36;;;;;;;132.05;31.08;;;;;;;1.55;68.54;99180.31;4886717;29;20044;-90
2022/12/10 12:57:25;;;;;;;209.50;34.83;;;;;;;2.02;67.20;99257.78;4872328;29;20423;-91
2022/12/10 13:00:17;;;;;;;151.07;30.13;;;;;;;1.38;67.00;99145.44;4889336;29;20075;-94
2022/12/10 13:03:49;;;;;;;154.65;29.50;;;;;;;1.66;67.63;99170.47;4895514;29;20056;-94
2022/12/10 13:06:59;;;;;;;105.88;25.23;;;;;;;1.64;67.95;99181.47;4808844;29;20196;-94
2022/12/10 13:09:36;;;;;;;104.35;27.58;;;;;;;1.40;67.32;99140.63;4761830;29;20070;-93
2022/12/10 13:12:02;;;;;;;195.15;32.88;;;;;;;2.02;66.79;99240.78;4827156;29;20169;-93
2022/12/10 13:23:26;;;;;;;280.13;36.38;;;;;;;1.93;69.92;99248.56;4796649;29;20046;-94
2022/12/10 13:25:59;;;;;;;142.32;24.05;;;;;;;1.82;70.96;99220.72;4771732;29;20050;-94
2022/12/10 13:37:39;;;;;;;;;;;;;;;;;;;;;
2022/12/10 13:44:25;;;;;;;94.20;22.50;;;;;;;2.30;71.28;99243.13;4773027;29;20456;-94
2022/12/10 13:47:20;;;;;;;113.13;23.35;;;;;;;2.34;69.81;99232.66;4785003;29;20062;-93
2022/12/10 13:50:51;;;;;;;1103.95;107.28;;;;;;;1.55;66.90;99144.50;4784120;29;20059;-92
2022/12/10 13:53:17;;;;;;;628.25;63.28;;;;;;;2.08;68.17;99228.97;4777058;29;20085;-94
2022/12/10 13:56:26;;;;;;;527.85;53.60;;;;;;;1.80;69.68;99177.03;4776549;29;20047;-92
2022/12/10 13:59:18;;;;;;;550.38;58.30;;;;;;;1.47;69.13;99121.56;4805545;29;20047;-93
2022/12/10 14:01:56;;;;;;;127.65;27.15;;;;;;;1.41;70.21;99118.00;4779815;29;20054;-92
2022/12/10 14:05:14;;;;;;;156.73;35.40;;;;;;;1.76;70.47;99158.94;4802790;29;20047;-94
2022/12/10 14:07:52;;;;;;;157.77;28.60;;;;;;;1.44;69.84;99097.03;4762179;30;20081;-93
2022/12/10 14:14:06;;;;;;;425.17;58.75;;;;;;;1.32;66.69;99094.50;4776286;30;20051;-94
2022/12/10 14:16:53;;;;;;;253.38;38.40;;;;;;;1.57;65.64;99143.19;4770494;30;20399;-90
2022/12/10 14:19:23;;;;;;;239.68;37.45;;;;;;;1.82;66.17;99166.81;4781047;30;20103;-93
2022/12/10 14:21:58;;;;;;;154.25;29.95;;;;;;;1.37;65.98;99099.94;4751415;30;20042;-92
2022/12/10 14:24:50;;;;;;;131.88;32.67;;;;;;;1.59;67.01;99143.75;4776917;30;20047;-93
2022/12/10 14:27:50;;;;;;;143.32;28.25;;;;;;;1.53;67.01;99125.09;4756291;30;20043;-92
2022/12/10 14:30:42;;;;;;;182.95;29.80;;;;;;;1.30;68.04;99092.06;4775580;30;20051;-91
2022/12/10 14:33:16;;;;;;;241.00;36.83;;;;;;;1.41;67.11;99080.28;4744687;30;20137;-91
2022/12/10 14:35:46;;;;;;;176.30;31.55;;;;;;;1.60;68.56;99118.41;4735197;30;20035;-91
2022/12/10 14:38:34;;;;;;;145.93;27.20;;;;;;;1.61;69.82;99119.22;4741825;30;20086;-92
2022/12/10 14:41:07;;;;;;;141.23;27.92;;;;;;;1.53;71.02;99068.53;4760620;30;20040;-95
2022/12/10 14:43:41;;;;;;;159.02;29.75;;;;;;;1.73;69.21;99116.34;4753304;29;20118;-92
2022/12/10 14:46:39;;;;;;;295.17;40.25;;;;;;;1.46;66.40;99068.75;4809138;29;20070;-94
2022/12/10 14:50:26;;;;;;;;;;;;;;;;;;;;;
2022/12/10 14:53:24;;;;;;;257.10;36.72;;;;;;;2.06;66.15;99161.84;4773877;30;20082;-92
2022/12/10 14:55:59;;;;;;;183.88;29.25;;;;;;;1.38;65.36;99048.50;4746653;30;20100;-93
2022/12/10 14:59:18;;;;;;;170.52;30.33;;;;;;;2.08;65.93;99151.59;4690725;30;20172;-94
2022/12/10 15:01:58;;;;;;;123.80;26.10;;;;;;;1.31;65.74;99018.28;4642724;30;20110;-92
2022/12/10 15:04:46;;;;;;;102.72;24.02;;;;;;;2.08;67.46;99132.72;4712475;30;20072;-96
2022/12/10 15:08:06;;;;;;;63.28;20.15;;;;;;;1.84;70.11;99089.19;4688389;30;20122;-93
2022/12/10 15:10:41;;;;;;;63.97;22.02;;;;;;;2.15;68.43;99135.16;4697840;30;20553;-93
2022/12/10 15:13:24;;;;;;;60.75;20.80;;;;;;;1.46;70.69;99012.19;4668271;30;20046;-91
2022/12/10 15:15:52;;;;;;;75.47;22.65;;;;;;;1.60;68.57;99053.75;4699012;30;20053;-94
2022/12/10 15:18:42;;;;;;;52.35;20.08;;;;;;;1.61;68.93;99052.69;4704011;30;20175;-93
2022/12/10 15:21:20;;;;;;;56.05;19.92;;;;;;;1.41;68.31;99004.06;4654231;30;20521;-90
2022/12/10 15:23:47;;;;;;;57.45;20.92;;;;;;;1.46;67.65;99005.97;4665810;30;20935;-91
2022/12/10 15:26:20;;;;;;;76.15;22.58;;;;;;;1.82;67.10;99058.16;4680435;30;20153;-92
2022/12/10 15:28:48;;;;;;;56.40;20.30;;;;;;;1.23;67.82;98966.81;4692058;29;20048;-90
2022/12/10 15:31:25;;;;;;;65.53;23.25;;;;;;;1.48;70.99;98999.25;4872905;29;20049;-90
2022/12/10 15:33:59;;;;;;;74.60;25.75;;;;;;;2.01;70.71;99045.88;4884542;29;20048;-89
2022/12/10 15:36:41;;;;;;;51.92;20.60;;;;;;;2.01;71.49;99035.09;4863261;29;20057;-91
2022/12/10 15:39:11;;;;;;;57.85;21.00;;;;;;;2.31;71.89;99057.84;4869441;29;20044;-92
2022/12/10 15:41:50;;;;;;;54.67;21.15;;;;;;;1.53;72.33;98953.50;4858563;29;20037;-93
2022/12/10 15:44:38;;;;;;;58.90;20.40;;;;;;;2.14;73.14;99059.94;4881593;29;20036;-94
2022/12/10 15:47:23;;;;;;;51.33;18.58;;;;;;;1.74;73.48;98985.94;4863549;29;20048;-91
2022/12/10 15:49:53;;;;;;;54.20;21.00;;;;;;;1.95;73.59;99003.78;4853578;29;20478;-91
2022/12/10 15:52:31;;;;;;;44.83;19.20;;;;;;;1.57;73.89;98934.94;4867264;29;20052;-92
2022/12/10 15:55:07;;;;;;;47.50;19.83;;;;;;;1.99;73.93;98994.13;4851619;29;20057;-91
2022/12/10 15:57:44;;;;;;;41.33;18.42;;;;;;;2.22;74.38;99038.69;4849060;29;20574;-93
2022/12/10 16:00:20;;;;;;;44.13;18.13;;;;;;;2.05;74.43;99001.16;4862502;29;20140;-94
2022/12/10 16:03:15;;;;;;;46.80;19.37;;;;;;;2.26;74.42;99031.69;4875052;29;20093;-92
2022/12/10 16:05:47;;;;;;;42.80;18.38;;;;;;;1.69;74.47;98923.94;4867173;29;20122;-92
2022/12/10 16:09:14;;;;;;;;;;;;;;;;;;;;;
2022/12/10 16:49:29;;;;;;;27.20;12.13;;;;;;;2.32;74.66;98927.31;4923789;29;20048;-92
2022/12/10 16:51:57;;;;;;;22.92;11.63;;;;;;;2.29;74.60;98927.88;4875981;29;20499;-92
2022/12/10 16:54:28;;;;;;;20.23;10.90;;;;;;;2.20;74.41;98883.63;4874060;29;20155;-94
2022/12/10 16:57:21;;;;;;;22.13;11.77;;;;;;;2.79;74.33;98964.84;4860134;29;20048;-94
2022/12/10 17:00:02;;;;;;;;;;;;;;;;;;;;;
2022/12/10 17:02:49;;;;;;;18.65;10.52;;;;;;;2.62;74.20;98918.44;4894498;29;20481;-93
2022/12/10 17:05:29;;;;;;;20.98;10.25;;;;;;;2.96;74.11;98983.47;4888676;29;20071;-95
2022/12/10 17:08:23;;;;;;;19.27;11.02;;;;;;;2.84;73.90;98939.72;4856006;29;20049;-93
2022/12/10 17:13:40;;;;;;;18.85;10.25;;;;;;;2.91;73.85;98924.06;4850431;29;20117;-93
2022/12/10 17:16:21;;;;;;;26.50;15.00;;;;;;;2.96;73.91;98926.75;4848285;29;20063;-92
2022/12/10 17:18:48;;;;;;;23.80;14.18;;;;;;;2.95;73.81;98916.25;4845642;29;20094;-92
2022/12/10 17:21:15;;;;;;;22.45;13.23;;;;;;;2.98;73.88;98913.81;4844463;29;20053;-93
2022/12/10 17:23:42;;;;;;;22.85;12.43;;;;;;;3.04;73.61;98918.09;4858146;29;20532;-94
2022/12/10 17:26:20;;;;;;;23.70;12.53;;;;;;;2.60;73.26;98842.34;4848626;29;20055;-95
2022/12/10 17:28:51;;;;;;;25.25;14.13;;;;;;;2.91;73.45;98878.16;4848085;29;20041;-92
2022/12/10 17:31:18;;;;;;;26.55;11.57;;;;;;;2.68;73.38;98854.44;4852288;29;20061;-92
2022/12/10 17:33:44;;;;;;;31.98;13.63;;;;;;;3.11;73.87;98908.91;4829949;29;20049;-93
2022/12/10 17:36:13;;;;;;;29.48;14.50;;;;;;;2.79;73.57;98851.47;4848313;29;20049;-93
2022/12/10 17:38:42;;;;;;;26.50;13.93;;;;;;;2.94;73.61;98863.31;4843382;29;20102;-93
2022/12/10 17:41:12;;;;;;;21.13;9.77;;;;;;;3.16;73.27;98871.09;4826446;29;20410;-92
2022/12/10 17:43:49;;;;;;;24.27;12.63;;;;;;;3.25;73.11;98885.66;4830613;29;20129;-93
2022/12/10 17:46:21;;;;;;;16.42;10.50;;;;;;;3.26;73.57;98887.25;4818302;29;20440;-93
2022/12/10 17:48:53;;;;;;;16.77;8.68;;;;;;;3.01;72.80;98843.06;4846947;29;20063;-93
2022/12/10 17:51:22;;;;;;;17.10;9.70;;;;;;;2.94;73.08;98833.63;4850927;29;20164;-92
2022/12/10 17:53:53;;;;;;;13.85;7.65;;;;;;;3.24;72.78;98884.81;4839496;29;20085;-92
2022/12/10 17:56:24;;;;;;;14.68;8.93;;;;;;;3.22;73.01;98875.41;4852745;29;20072;-90
2022/12/10 17:58:53;;;;;;;13.20;7.25;;;;;;;3.26;73.15;98882.66;4837287;29;20588;-88
2022/12/10 18:01:20;;;;;;;14.15;7.93;;;;;;;2.90;73.07;98827.97;4813553;29;20065;-91
2022/12/10 18:03:47;;;;;;;15.70;8.77;;;;;;;2.98;73.10;98840.06;4785961;29;20126;-91
2022/12/10 18:06:24;;;;;;;13.38;7.75;;;;;;;3.12;73.33;98875.44;4815880;29;20193;-92
2022/12/10 18:08:51;;;;;;;20.90;13.70;;;;;;;2.79;73.29;98797.50;4792913;29;20046;-91
2022/12/10 18:11:23;;;;;;;22.45;15.07;;;;;;;3.00;73.41;98824.44;4816665;29;20148;-90
2022/12/10 18:13:52;;;;;;;16.88;10.23;;;;;;;2.99;73.56;98820.13;4800031;29;20185;-90
2022/12/10 18:16:29;;;;;;;13.60;8.77;;;;;;;2.82;73.52;98786.16;4841082;29;20122;-91
2022/12/10 18:18:59;;;;;;;15.38;8.45;;;;;;;3.05;73.41;98811.72;4809606;29;20549;-93
2022/12/10 18:21:26;;;;;;;15.43;11.65;;;;;;;3.49;73.21;98880.41;4821342;29;20514;-89
2022/12/10 18:23:53;;;;;;;11.05;7.32;;;;;;;3.50;73.08;98879.31;4842071;29;20124;-90
2022/12/10 18:26:23;;;;;;;17.23;11.43;;;;;;;2.77;73.15;98777.25;4850144;29;20101;-91
2022/12/10 18:28:56;;;;;;;24.45;12.40;;;;;;;2.84;73.26;98772.38;4856535;29;20049;-90
2022/12/10 18:31:27;;;;;;;19.98;12.13;;;;;;;2.97;73.33;98806.88;4863248;29;20053;-91
2022/12/10 18:33:58;;;;;;;12.20;8.02;;;;;;;2.82;73.62;98763.75;4857718;29;20033;-92
2022/12/10 18:36:32;;;;;;;16.20;8.70;;;;;;;3.12;73.33;98816.81;4862094;29;20489;-90
2022/12/10 18:39:03;;;;;;;25.55;15.02;;;;;;;3.35;73.08;98830.78;4904405;29;20044;-91
2022/12/10 18:41:32;;;;;;;18.90;11.65;;;;;;;3.30;73.21;98831.59;4868146;29;20056;-92
2022/12/10 18:43:59;;;;;;;19.30;11.38;;;;;;;3.30;73.19;98826.19;4898969;29;20064;-90
2022/12/10 18:46:32;;;;;;;16.27;10.17;;;;;;;3.40;73.36;98872.06;4881815;29;20054;-89
2022/12/10 18:49:02;;;;;;;20.23;12.35;;;;;;;3.28;73.46;98836.47;4892152;29;20063;-91
2022/12/10 18:51:34;;;;;;;16.25;7.88;;;;;;;2.93;73.37;98773.41;4889698;29;20045;-93
2022/12/10 19:03:30;;;;;;;8.95;5.57;;;;;;;2.79;73.22;98726.53;4625022;31;20122;-89
2022/12/10 19:06:01;;;;;;;9.05;6.03;;;;;;;3.03;73.33;98776.06;4616892;30;20059;-90
2022/12/10 19:08:31;;;;;;;8.10;5.13;;;;;;;3.10;73.29;98791.97;4658059;30;20543;-91